IGO0264 VECC-VOCI
Flight info
| Callsign | IGO0264 |
|---|---|
| Flight time | 2h 44m |
| Altitude | 35000 |
| Route | CEA W111 VETED DCT KAKID/N0456F360 A465 MMV W115 NUVTI J13 MATPA MATPA1D |
| Aircraft | A320/M-SDE3FGHIRWY/LB1 |
Departure
| Time | 2026-05-05 11:30 |
|---|---|
| Airport | Netaji Subhash Chandra Bose International Airport (VECC) |
Arrival
| Time | 2026-05-05 14:14 |
|---|---|
| Airport | Cochin International Airport (VOCI) |
| Time | Latitude | Longitude | Altitude | Speed | Heading |
|---|---|---|---|---|---|
| 2026-05-05 11:09 | 22.64049 | 88.43962 | 23 ft | 0 kts | 337° |
| 2026-05-05 11:17 | 22.64041 | 88.43965 | 23 ft | 4 kts | 338° |
| 2026-05-05 11:17 | 22.64016 | 88.43975 | 25 ft | 4 kts | 346° |
| 2026-05-05 11:18 | 22.63989 | 88.43979 | 25 ft | 4 kts | 4° |
| 2026-05-05 11:18 | 22.63966 | 88.43972 | 25 ft | 4 kts | 53° |
| 2026-05-05 11:18 | 22.63961 | 88.43963 | 26 ft | 1 kts | 67° |
| 2026-05-05 11:18 | 22.63961 | 88.43962 | 26 ft | 0 kts | 67° |
| 2026-05-05 11:20 | 22.63961 | 88.43963 | 26 ft | 1 kts | 67° |
| 2026-05-05 11:20 | 22.63971 | 88.43989 | 24 ft | 7 kts | 67° |
| 2026-05-05 11:20 | 22.63996 | 88.44055 | 23 ft | 12 kts | 67° |
| 2026-05-05 11:21 | 22.64057 | 88.44120 | 23 ft | 14 kts | 9° |
| 2026-05-05 11:21 | 22.64170 | 88.44133 | 23 ft | 17 kts | 6° |
| 2026-05-05 11:21 | 22.64290 | 88.44147 | 25 ft | 17 kts | 7° |
| 2026-05-05 11:21 | 22.64411 | 88.44162 | 23 ft | 18 kts | 6° |
| 2026-05-05 11:22 | 22.64534 | 88.44176 | 23 ft | 18 kts | 6° |
| 2026-05-05 11:22 | 22.64660 | 88.44191 | 24 ft | 18 kts | 6° |
| 2026-05-05 11:22 | 22.64786 | 88.44205 | 24 ft | 18 kts | 7° |
| 2026-05-05 11:22 | 22.64914 | 88.44221 | 24 ft | 19 kts | 5° |
| 2026-05-05 11:23 | 22.65040 | 88.44245 | 23 ft | 18 kts | 33° |
| 2026-05-05 11:23 | 22.65117 | 88.44336 | 23 ft | 16 kts | 14° |
| 2026-05-05 11:23 | 22.65231 | 88.44349 | 24 ft | 16 kts | 7° |
| 2026-05-05 11:23 | 22.65345 | 88.44362 | 24 ft | 17 kts | 6° |
| 2026-05-05 11:24 | 22.65461 | 88.44376 | 24 ft | 17 kts | 6° |
| 2026-05-05 11:24 | 22.65580 | 88.44389 | 27 ft | 17 kts | 5° |
| 2026-05-05 11:24 | 22.65702 | 88.44402 | 24 ft | 18 kts | 5° |
| 2026-05-05 11:24 | 22.65828 | 88.44416 | 24 ft | 19 kts | 5° |
| 2026-05-05 11:25 | 22.65957 | 88.44449 | 24 ft | 19 kts | 16° |
| 2026-05-05 11:25 | 22.66090 | 88.44469 | 24 ft | 20 kts | 8° |
| 2026-05-05 11:25 | 22.66236 | 88.44483 | 23 ft | 22 kts | 5° |
| 2026-05-05 11:25 | 22.66392 | 88.44501 | 23 ft | 23 kts | 7° |
| 2026-05-05 11:26 | 22.66556 | 88.44524 | 23 ft | 24 kts | 12° |
| 2026-05-05 11:26 | 22.66727 | 88.44565 | 25 ft | 26 kts | 10° |
| 2026-05-05 11:26 | 22.66892 | 88.44585 | 23 ft | 21 kts | 5° |
| 2026-05-05 11:26 | 22.67039 | 88.44602 | 23 ft | 22 kts | 7° |
| 2026-05-05 11:27 | 22.67191 | 88.44621 | 24 ft | 21 kts | 8° |
| 2026-05-05 11:27 | 22.67292 | 88.44720 | 24 ft | 21 kts | 61° |
| 2026-05-05 11:27 | 22.67335 | 88.44850 | 25 ft | 11 kts | 94° |
| 2026-05-05 11:27 | 22.67333 | 88.44880 | 26 ft | 0 kts | 95° |
| 2026-05-05 11:28 | 22.67331 | 88.44895 | 27 ft | 3 kts | 95° |
| 2026-05-05 11:28 | 22.67328 | 88.44932 | 28 ft | 7 kts | 96° |
| 2026-05-05 11:28 | 22.67307 | 88.44988 | 30 ft | 10 kts | 147° |
| 2026-05-05 11:29 | 22.67256 | 88.44990 | 29 ft | 1 kts | 185° |
| 2026-05-05 11:29 | 22.67243 | 88.44989 | 29 ft | 6 kts | 185° |
| 2026-05-05 11:29 | 22.66996 | 88.44961 | 27 ft | 70 kts | 186° |
| 2026-05-05 11:29 | 22.66310 | 88.44880 | 27 ft | 125 kts | 186° |
| 2026-05-05 11:30 | 22.65297 | 88.44763 | 29 ft | 166 kts | 185° |
| 2026-05-05 11:30 | 22.64066 | 88.44614 | 312 ft | 184 kts | 184° |
| 2026-05-05 11:30 | 22.62795 | 88.44446 | 914 ft | 186 kts | 185° |
| 2026-05-05 11:30 | 22.61446 | 88.44289 | 1277 ft | 203 kts | 184° |
| 2026-05-05 11:31 | 22.60019 | 88.44158 | 1722 ft | 210 kts | 186° |
| 2026-05-05 11:31 | 22.58479 | 88.44031 | 1930 ft | 234 kts | 184° |
| 2026-05-05 11:31 | 22.56772 | 88.43915 | 2246 ft | 257 kts | 184° |
| 2026-05-05 11:31 | 22.54953 | 88.43797 | 2881 ft | 265 kts | 183° |
| 2026-05-05 11:32 | 22.53104 | 88.43677 | 3654 ft | 269 kts | 184° |
| 2026-05-05 11:32 | 22.51220 | 88.43558 | 4446 ft | 273 kts | 183° |
| 2026-05-05 11:32 | 22.49314 | 88.43439 | 5211 ft | 277 kts | 184° |
| 2026-05-05 11:32 | 22.47371 | 88.43327 | 5682 ft | 282 kts | 184° |
| 2026-05-05 11:33 | 22.45403 | 88.43221 | 6275 ft | 285 kts | 183° |
| 2026-05-05 11:33 | 22.43417 | 88.43123 | 6989 ft | 288 kts | 183° |
| 2026-05-05 11:33 | 22.41404 | 88.43030 | 7698 ft | 291 kts | 184° |
| 2026-05-05 11:33 | 22.39373 | 88.42941 | 8417 ft | 293 kts | 183° |
| 2026-05-05 11:34 | 22.37316 | 88.42855 | 9103 ft | 297 kts | 184° |
| 2026-05-05 11:34 | 22.35244 | 88.42858 | 9793 ft | 301 kts | 173° |
| 2026-05-05 11:34 | 22.33161 | 88.43377 | 10130 ft | 318 kts | 165° |
| 2026-05-05 11:34 | 22.30964 | 88.44056 | 10277 ft | 339 kts | 165° |
| 2026-05-05 11:35 | 22.28667 | 88.44792 | 10659 ft | 348 kts | 164° |
| 2026-05-05 11:35 | 22.26334 | 88.45534 | 11219 ft | 352 kts | 165° |
| 2026-05-05 11:35 | 22.23972 | 88.46280 | 11799 ft | 355 kts | 165° |
| 2026-05-05 11:35 | 22.21590 | 88.46926 | 12332 ft | 360 kts | 169° |
| 2026-05-05 11:36 | 22.19130 | 88.47447 | 12909 ft | 362 kts | 166° |
| 2026-05-05 11:36 | 22.16694 | 88.48121 | 13476 ft | 363 kts | 172° |
| 2026-05-05 11:36 | 22.14131 | 88.48305 | 13987 ft | 365 kts | 179° |
| 2026-05-05 11:36 | 22.11585 | 88.48387 | 14496 ft | 367 kts | 179° |
| 2026-05-05 11:37 | 22.09025 | 88.48482 | 15017 ft | 369 kts | 179° |
| 2026-05-05 11:37 | 22.06463 | 88.48600 | 15518 ft | 371 kts | 179° |
| 2026-05-05 11:37 | 22.03872 | 88.48743 | 16022 ft | 373 kts | 178° |
| 2026-05-05 11:37 | 22.01310 | 88.48902 | 16514 ft | 375 kts | 178° |
| 2026-05-05 11:38 | 21.98699 | 88.49073 | 17006 ft | 378 kts | 178° |
| 2026-05-05 11:38 | 21.96068 | 88.49246 | 17496 ft | 380 kts | 179° |
| 2026-05-05 11:38 | 21.93420 | 88.49415 | 17987 ft | 382 kts | 179° |
| 2026-05-05 11:38 | 21.90758 | 88.49583 | 18429 ft | 384 kts | 179° |
| 2026-05-05 11:39 | 21.88083 | 88.49750 | 18862 ft | 386 kts | 179° |
| 2026-05-05 11:39 | 21.85400 | 88.49915 | 19294 ft | 387 kts | 180° |
| 2026-05-05 11:39 | 21.82700 | 88.50078 | 19741 ft | 389 kts | 180° |
| 2026-05-05 11:39 | 21.79994 | 88.50242 | 20176 ft | 390 kts | 180° |
| 2026-05-05 11:40 | 21.77274 | 88.50409 | 20585 ft | 392 kts | 180° |
| 2026-05-05 11:40 | 21.74549 | 88.50576 | 21000 ft | 394 kts | 181° |
| 2026-05-05 11:40 | 21.71806 | 88.50744 | 21414 ft | 396 kts | 181° |
| 2026-05-05 11:40 | 21.69053 | 88.50913 | 21808 ft | 397 kts | 181° |
| 2026-05-05 11:41 | 21.66281 | 88.51084 | 22207 ft | 399 kts | 181° |
| 2026-05-05 11:41 | 21.63505 | 88.51255 | 22590 ft | 401 kts | 181° |
| 2026-05-05 11:41 | 21.60712 | 88.51426 | 22970 ft | 403 kts | 181° |
| 2026-05-05 11:41 | 21.57903 | 88.51598 | 23342 ft | 405 kts | 181° |
| 2026-05-05 11:42 | 21.55085 | 88.51773 | 23644 ft | 407 kts | 181° |
| 2026-05-05 11:42 | 21.52252 | 88.51949 | 23951 ft | 409 kts | 181° |
| 2026-05-05 11:42 | 21.49406 | 88.52127 | 24245 ft | 410 kts | 181° |
| 2026-05-05 11:42 | 21.46592 | 88.52304 | 24534 ft | 412 kts | 181° |
| 2026-05-05 11:43 | 21.43685 | 88.52486 | 24797 ft | 414 kts | 181° |
| 2026-05-05 11:43 | 21.40802 | 88.52615 | 25069 ft | 413 kts | 187° |
| 2026-05-05 11:43 | 21.38022 | 88.52171 | 25335 ft | 407 kts | 200° |
| 2026-05-05 11:43 | 21.35414 | 88.51035 | 25611 ft | 403 kts | 213° |
| 2026-05-05 11:44 | 21.33149 | 88.49295 | 25869 ft | 400 kts | 225° |
| 2026-05-05 11:44 | 21.31327 | 88.47058 | 26150 ft | 399 kts | 237° |
| 2026-05-05 11:44 | 21.30009 | 88.44447 | 26407 ft | 400 kts | 245° |
| 2026-05-05 11:44 | 21.28814 | 88.41749 | 26677 ft | 401 kts | 245° |
| 2026-05-05 11:45 | 21.27610 | 88.39047 | 26941 ft | 403 kts | 245° |
| 2026-05-05 11:45 | 21.26396 | 88.36335 | 27207 ft | 404 kts | 245° |
| 2026-05-05 11:45 | 21.25170 | 88.33612 | 27467 ft | 406 kts | 245° |
| 2026-05-05 11:45 | 21.23937 | 88.30884 | 27723 ft | 408 kts | 244° |
| 2026-05-05 11:46 | 21.22697 | 88.28143 | 27990 ft | 409 kts | 245° |
| 2026-05-05 11:46 | 21.21457 | 88.25397 | 28252 ft | 411 kts | 245° |
| 2026-05-05 11:46 | 21.20211 | 88.22632 | 28528 ft | 412 kts | 245° |
| 2026-05-05 11:46 | 21.18962 | 88.19858 | 28801 ft | 414 kts | 245° |
| 2026-05-05 11:47 | 21.17706 | 88.17067 | 29076 ft | 416 kts | 245° |
| 2026-05-05 11:47 | 21.16449 | 88.14274 | 29337 ft | 417 kts | 245° |
| 2026-05-05 11:47 | 21.15191 | 88.11478 | 29724 ft | 416 kts | 245° |
| 2026-05-05 11:47 | 21.13938 | 88.08690 | 30090 ft | 415 kts | 245° |
| 2026-05-05 11:48 | 21.11438 | 88.03141 | 30753 ft | 412 kts | 245° |
| 2026-05-05 11:48 | 21.10192 | 88.00388 | 31067 ft | 411 kts | 245° |
| 2026-05-05 11:48 | 21.08942 | 87.97630 | 31391 ft | 411 kts | 245° |
| 2026-05-05 11:49 | 21.07693 | 87.94878 | 31719 ft | 410 kts | 245° |
| 2026-05-05 11:49 | 21.06450 | 87.92141 | 32049 ft | 409 kts | 245° |
| 2026-05-05 11:49 | 21.05204 | 87.89396 | 32384 ft | 409 kts | 245° |
| 2026-05-05 11:49 | 21.03965 | 87.86661 | 32715 ft | 408 kts | 245° |
| 2026-05-05 11:50 | 21.02729 | 87.83933 | 33049 ft | 407 kts | 245° |
| 2026-05-05 11:50 | 21.01492 | 87.81210 | 33358 ft | 406 kts | 245° |
| 2026-05-05 11:50 | 21.00255 | 87.78493 | 33683 ft | 406 kts | 245° |
| 2026-05-05 11:50 | 20.99025 | 87.75782 | 33961 ft | 405 kts | 245° |
| 2026-05-05 11:51 | 20.97795 | 87.73071 | 34224 ft | 404 kts | 245° |
| 2026-05-05 11:51 | 20.96568 | 87.70366 | 34497 ft | 404 kts | 245° |
| 2026-05-05 11:51 | 20.95344 | 87.67665 | 34756 ft | 403 kts | 245° |
| 2026-05-05 11:51 | 20.94124 | 87.64977 | 35020 ft | 402 kts | 245° |
| 2026-05-05 11:52 | 20.92899 | 87.62284 | 35280 ft | 401 kts | 245° |
| 2026-05-05 11:52 | 20.91680 | 87.59605 | 35529 ft | 401 kts | 245° |
| 2026-05-05 11:52 | 20.90873 | 87.57834 | 35692 ft | 400 kts | 245° |
| 2026-05-05 11:52 | 20.89650 | 87.55157 | 35808 ft | 401 kts | 245° |
| 2026-05-05 11:53 | 20.86779 | 87.48870 | 35837 ft | 407 kts | 245° |
| 2026-05-05 11:53 | 20.84301 | 87.43426 | 35835 ft | 407 kts | 245° |
| 2026-05-05 11:54 | 20.81807 | 87.37977 | 35834 ft | 408 kts | 245° |
| 2026-05-05 11:54 | 20.79723 | 87.33422 | 35832 ft | 408 kts | 245° |
| 2026-05-05 11:55 | 20.77227 | 87.27983 | 35819 ft | 408 kts | 245° |
| 2026-05-05 11:55 | 20.74722 | 87.22538 | 35836 ft | 408 kts | 245° |
| 2026-05-05 11:56 | 20.72238 | 87.17129 | 35840 ft | 408 kts | 245° |
| 2026-05-05 11:56 | 20.69747 | 87.11678 | 35846 ft | 408 kts | 245° |
| 2026-05-05 11:57 | 20.67238 | 87.06238 | 35842 ft | 408 kts | 245° |
| 2026-05-05 11:57 | 20.64682 | 87.00818 | 35843 ft | 409 kts | 240° |
| 2026-05-05 11:58 | 20.61063 | 86.96103 | 35844 ft | 413 kts | 230° |
| 2026-05-05 11:58 | 20.57137 | 86.91615 | 35854 ft | 414 kts | 230° |
| 2026-05-05 11:59 | 20.53215 | 86.87115 | 35853 ft | 414 kts | 230° |
| 2026-05-05 11:59 | 20.49283 | 86.82622 | 35853 ft | 414 kts | 230° |
| 2026-05-05 12:00 | 20.45352 | 86.78123 | 35856 ft | 414 kts | 230° |
| 2026-05-05 12:00 | 20.41425 | 86.73622 | 35838 ft | 415 kts | 230° |
| 2026-05-05 12:01 | 20.37484 | 86.69121 | 35838 ft | 416 kts | 230° |
| 2026-05-05 12:01 | 20.33532 | 86.64618 | 35840 ft | 416 kts | 230° |
| 2026-05-05 12:02 | 20.29582 | 86.60119 | 35849 ft | 416 kts | 230° |
| 2026-05-05 12:02 | 20.25646 | 86.55641 | 35850 ft | 416 kts | 230° |
| 2026-05-05 12:03 | 20.21692 | 86.51147 | 35851 ft | 416 kts | 230° |
| 2026-05-05 12:03 | 20.17732 | 86.46645 | 35858 ft | 416 kts | 230° |
| 2026-05-05 12:04 | 20.13775 | 86.42150 | 35854 ft | 417 kts | 230° |
| 2026-05-05 12:04 | 20.09814 | 86.37649 | 35841 ft | 417 kts | 230° |
| 2026-05-05 12:05 | 20.05840 | 86.33143 | 35840 ft | 417 kts | 230° |
| 2026-05-05 12:05 | 20.01902 | 86.28615 | 35838 ft | 417 kts | 230° |
| 2026-05-05 12:06 | 19.98019 | 86.24012 | 35841 ft | 418 kts | 231° |
| 2026-05-05 12:06 | 19.94139 | 86.19404 | 35844 ft | 418 kts | 231° |
| 2026-05-05 12:07 | 19.90236 | 86.14816 | 35850 ft | 419 kts | 230° |
| 2026-05-05 12:07 | 19.86263 | 86.10280 | 35852 ft | 419 kts | 230° |
| 2026-05-05 12:08 | 19.82252 | 86.05778 | 35859 ft | 420 kts | 229° |
| 2026-05-05 12:08 | 19.78243 | 86.01268 | 35861 ft | 420 kts | 230° |
| 2026-05-05 12:09 | 19.74247 | 85.96742 | 35853 ft | 420 kts | 230° |
| 2026-05-05 12:09 | 19.70249 | 85.92202 | 35853 ft | 421 kts | 230° |
| 2026-05-05 12:10 | 19.66252 | 85.87669 | 35855 ft | 421 kts | 229° |
| 2026-05-05 12:10 | 19.62236 | 85.83144 | 35856 ft | 421 kts | 229° |
| 2026-05-05 12:11 | 19.58220 | 85.78612 | 35854 ft | 421 kts | 229° |
| 2026-05-05 12:11 | 19.54217 | 85.74091 | 35854 ft | 421 kts | 229° |
| 2026-05-05 12:12 | 19.50219 | 85.69591 | 35855 ft | 421 kts | 229° |
| 2026-05-05 12:12 | 19.46198 | 85.65068 | 35856 ft | 421 kts | 229° |
| 2026-05-05 12:13 | 19.42181 | 85.60545 | 35855 ft | 421 kts | 229° |
| 2026-05-05 12:13 | 19.38162 | 85.56029 | 35846 ft | 421 kts | 229° |
| 2026-05-05 12:14 | 19.34144 | 85.51517 | 35851 ft | 421 kts | 229° |
| 2026-05-05 12:14 | 19.30127 | 85.47015 | 35847 ft | 420 kts | 229° |
| 2026-05-05 12:15 | 19.26116 | 85.42516 | 35852 ft | 420 kts | 229° |
| 2026-05-05 12:15 | 19.22105 | 85.38011 | 35841 ft | 421 kts | 229° |
| 2026-05-05 12:16 | 19.18080 | 85.33509 | 35831 ft | 421 kts | 229° |
| 2026-05-05 12:16 | 19.14049 | 85.29000 | 35829 ft | 421 kts | 229° |
| 2026-05-05 12:17 | 19.10240 | 85.24321 | 35827 ft | 420 kts | 234° |
| 2026-05-05 12:17 | 19.06697 | 85.19405 | 35829 ft | 420 kts | 234° |
| 2026-05-05 12:18 | 19.03149 | 85.14498 | 35835 ft | 420 kts | 234° |
| 2026-05-05 12:18 | 18.99601 | 85.09593 | 35843 ft | 420 kts | 234° |
| 2026-05-05 12:19 | 18.96065 | 85.04687 | 35849 ft | 420 kts | 234° |
| 2026-05-05 12:19 | 18.92540 | 84.99819 | 35846 ft | 420 kts | 234° |
| 2026-05-05 12:20 | 18.88982 | 84.94917 | 35848 ft | 421 kts | 234° |
| 2026-05-05 12:20 | 18.85418 | 84.90017 | 35848 ft | 421 kts | 234° |
| 2026-05-05 12:21 | 18.81864 | 84.85102 | 35848 ft | 421 kts | 234° |
| 2026-05-05 12:21 | 18.78348 | 84.80165 | 35849 ft | 421 kts | 235° |
| 2026-05-05 12:22 | 18.74831 | 84.75217 | 35853 ft | 421 kts | 235° |
| 2026-05-05 12:22 | 18.71304 | 84.70290 | 35852 ft | 421 kts | 234° |
| 2026-05-05 12:23 | 18.67769 | 84.65368 | 35855 ft | 421 kts | 234° |
| 2026-05-05 12:23 | 18.64238 | 84.60441 | 35851 ft | 421 kts | 234° |
| 2026-05-05 12:24 | 18.60704 | 84.55512 | 35852 ft | 422 kts | 234° |
| 2026-05-05 12:24 | 18.57161 | 84.50577 | 35852 ft | 422 kts | 234° |
| 2026-05-05 12:25 | 18.53619 | 84.45655 | 35851 ft | 422 kts | 234° |
| 2026-05-05 12:25 | 18.50089 | 84.40757 | 35852 ft | 422 kts | 234° |
| 2026-05-05 12:26 | 18.46527 | 84.35797 | 35855 ft | 422 kts | 234° |
| 2026-05-05 12:26 | 18.43002 | 84.30902 | 35856 ft | 422 kts | 234° |
| 2026-05-05 12:27 | 18.39444 | 84.25973 | 35859 ft | 422 kts | 234° |
| 2026-05-05 12:27 | 18.35890 | 84.21052 | 35863 ft | 423 kts | 234° |
| 2026-05-05 12:28 | 18.32327 | 84.16119 | 35839 ft | 423 kts | 234° |
| 2026-05-05 12:28 | 18.28757 | 84.11182 | 35841 ft | 424 kts | 234° |
| 2026-05-05 12:29 | 18.25202 | 84.06227 | 35844 ft | 424 kts | 235° |
| 2026-05-05 12:29 | 18.21656 | 84.01258 | 35848 ft | 425 kts | 235° |
| 2026-05-05 12:30 | 18.18097 | 83.96292 | 35853 ft | 425 kts | 234° |
| 2026-05-05 12:30 | 18.14542 | 83.91333 | 35856 ft | 425 kts | 234° |
| 2026-05-05 12:31 | 18.10978 | 83.86362 | 35849 ft | 425 kts | 234° |
| 2026-05-05 12:31 | 18.07407 | 83.81403 | 35847 ft | 426 kts | 234° |
| 2026-05-05 12:32 | 18.03826 | 83.76443 | 35844 ft | 426 kts | 234° |
| 2026-05-05 12:32 | 18.00249 | 83.71480 | 35845 ft | 426 kts | 234° |
| 2026-05-05 12:33 | 17.96668 | 83.66510 | 35837 ft | 427 kts | 234° |
| 2026-05-05 12:33 | 17.93081 | 83.61531 | 35840 ft | 427 kts | 234° |
| 2026-05-05 12:34 | 17.89514 | 83.56580 | 35833 ft | 428 kts | 234° |
| 2026-05-05 12:34 | 17.85945 | 83.51626 | 35830 ft | 428 kts | 234° |
| 2026-05-05 12:35 | 17.82346 | 83.46643 | 35830 ft | 429 kts | 234° |
| 2026-05-05 12:35 | 17.78736 | 83.41659 | 35835 ft | 429 kts | 234° |
| 2026-05-05 12:36 | 17.75117 | 83.36676 | 35837 ft | 429 kts | 234° |
| 2026-05-05 12:36 | 17.71506 | 83.31692 | 35841 ft | 429 kts | 234° |
| 2026-05-05 12:37 | 17.67855 | 83.26731 | 35843 ft | 430 kts | 229° |
| 2026-05-05 12:37 | 17.63199 | 83.22782 | 35840 ft | 434 kts | 215° |
| 2026-05-05 12:38 | 17.58115 | 83.19355 | 35824 ft | 435 kts | 215° |
| 2026-05-05 12:38 | 17.53021 | 83.15920 | 35816 ft | 435 kts | 215° |
| 2026-05-05 12:39 | 17.47925 | 83.12479 | 35822 ft | 436 kts | 215° |
| 2026-05-05 12:39 | 17.42824 | 83.09033 | 35824 ft | 436 kts | 215° |
| 2026-05-05 12:40 | 17.37722 | 83.05589 | 35824 ft | 437 kts | 215° |
| 2026-05-05 12:40 | 17.33476 | 83.02720 | 35830 ft | 437 kts | 215° |
| 2026-05-05 12:41 | 17.27503 | 82.98693 | 35828 ft | 437 kts | 214° |
| 2026-05-05 12:41 | 17.23255 | 82.95837 | 35837 ft | 437 kts | 215° |
| 2026-05-05 12:42 | 17.18151 | 82.92399 | 35847 ft | 436 kts | 215° |
| 2026-05-05 12:42 | 17.13051 | 82.88974 | 35850 ft | 436 kts | 214° |
| 2026-05-05 12:43 | 17.07952 | 82.85555 | 35851 ft | 435 kts | 215° |
| 2026-05-05 12:43 | 17.02852 | 82.82128 | 35852 ft | 435 kts | 215° |
| 2026-05-05 12:44 | 16.97759 | 82.78708 | 35851 ft | 435 kts | 214° |
| 2026-05-05 12:44 | 16.92658 | 82.75285 | 35840 ft | 436 kts | 214° |
| 2026-05-05 12:45 | 16.87549 | 82.71856 | 35851 ft | 436 kts | 214° |
| 2026-05-05 12:45 | 16.82448 | 82.68437 | 35850 ft | 436 kts | 214° |
| 2026-05-05 12:46 | 16.77342 | 82.65017 | 35854 ft | 436 kts | 214° |
| 2026-05-05 12:46 | 16.72221 | 82.61601 | 35854 ft | 436 kts | 214° |
| 2026-05-05 12:47 | 16.67103 | 82.58204 | 35853 ft | 436 kts | 214° |
| 2026-05-05 12:47 | 16.61990 | 82.54801 | 35854 ft | 436 kts | 214° |
| 2026-05-05 12:48 | 16.56874 | 82.51386 | 35855 ft | 436 kts | 214° |
| 2026-05-05 12:48 | 16.51765 | 82.47984 | 35843 ft | 436 kts | 214° |
| 2026-05-05 12:49 | 16.46653 | 82.44592 | 35854 ft | 435 kts | 214° |
| 2026-05-05 12:49 | 16.41545 | 82.41199 | 35854 ft | 435 kts | 214° |
| 2026-05-05 12:50 | 16.36447 | 82.37811 | 35851 ft | 435 kts | 214° |
| 2026-05-05 12:50 | 16.31339 | 82.34428 | 35850 ft | 435 kts | 214° |
| 2026-05-05 12:51 | 16.26228 | 82.31044 | 35847 ft | 436 kts | 214° |
| 2026-05-05 12:51 | 16.21110 | 82.27653 | 35852 ft | 436 kts | 214° |
| 2026-05-05 12:52 | 16.15992 | 82.24260 | 35856 ft | 437 kts | 213° |
| 2026-05-05 12:52 | 16.10895 | 82.20890 | 35849 ft | 437 kts | 213° |
| 2026-05-05 12:53 | 16.05759 | 82.17491 | 35857 ft | 437 kts | 213° |
| 2026-05-05 12:53 | 16.00625 | 82.14100 | 35851 ft | 438 kts | 213° |
| 2026-05-05 12:54 | 15.92918 | 82.09012 | 35853 ft | 437 kts | 213° |
| 2026-05-05 12:55 | 15.87782 | 82.05625 | 35858 ft | 437 kts | 213° |
| 2026-05-05 12:55 | 15.82648 | 82.02230 | 35848 ft | 437 kts | 214° |
| 2026-05-05 12:56 | 15.77549 | 81.98784 | 35846 ft | 437 kts | 214° |
| 2026-05-05 12:56 | 15.72458 | 81.95332 | 35847 ft | 437 kts | 214° |
| 2026-05-05 12:57 | 15.67354 | 81.91890 | 35847 ft | 438 kts | 214° |
| 2026-05-05 12:57 | 15.62237 | 81.88443 | 35859 ft | 438 kts | 214° |
| 2026-05-05 12:58 | 15.57137 | 81.85003 | 35851 ft | 438 kts | 214° |
| 2026-05-05 12:58 | 15.52009 | 81.81589 | 35858 ft | 438 kts | 213° |
| 2026-05-05 12:59 | 15.46852 | 81.78232 | 35842 ft | 438 kts | 213° |
| 2026-05-05 12:59 | 15.41681 | 81.74870 | 35847 ft | 438 kts | 213° |
| 2026-05-05 13:00 | 15.33929 | 81.69819 | 35860 ft | 439 kts | 213° |
| 2026-05-05 13:01 | 15.23640 | 81.63107 | 35845 ft | 438 kts | 213° |
| 2026-05-05 13:01 | 15.18477 | 81.59741 | 35847 ft | 438 kts | 213° |
| 2026-05-05 13:02 | 15.13313 | 81.56374 | 35855 ft | 439 kts | 213° |
| 2026-05-05 13:02 | 15.08142 | 81.53016 | 35855 ft | 439 kts | 212° |
| 2026-05-05 13:03 | 15.02965 | 81.49659 | 35851 ft | 439 kts | 212° |
| 2026-05-05 13:03 | 14.97798 | 81.46302 | 35850 ft | 439 kts | 213° |
| 2026-05-05 13:04 | 14.92627 | 81.42934 | 35855 ft | 439 kts | 213° |
| 2026-05-05 13:04 | 14.87460 | 81.39571 | 35852 ft | 439 kts | 212° |
| 2026-05-05 13:05 | 14.82287 | 81.36216 | 35846 ft | 439 kts | 212° |
| 2026-05-05 13:05 | 14.77111 | 81.32860 | 35845 ft | 439 kts | 212° |
| 2026-05-05 13:06 | 14.71936 | 81.29509 | 35848 ft | 439 kts | 212° |
| 2026-05-05 13:06 | 14.66761 | 81.26155 | 35841 ft | 439 kts | 212° |
| 2026-05-05 13:07 | 14.61575 | 81.22802 | 35836 ft | 440 kts | 212° |
| 2026-05-05 13:07 | 14.56390 | 81.19448 | 35840 ft | 440 kts | 212° |
| 2026-05-05 13:08 | 14.51202 | 81.16084 | 35850 ft | 440 kts | 212° |
| 2026-05-05 13:08 | 14.46047 | 81.12755 | 35849 ft | 440 kts | 212° |
| 2026-05-05 13:09 | 14.40846 | 81.09399 | 35852 ft | 440 kts | 212° |
| 2026-05-05 13:09 | 14.35651 | 81.06047 | 35830 ft | 441 kts | 212° |
| 2026-05-05 13:10 | 14.30447 | 81.02684 | 35841 ft | 441 kts | 212° |
| 2026-05-05 13:10 | 14.25245 | 80.99332 | 35833 ft | 441 kts | 212° |
| 2026-05-05 13:11 | 14.20046 | 80.95984 | 35838 ft | 441 kts | 212° |
| 2026-05-05 13:11 | 14.14849 | 80.92635 | 35828 ft | 441 kts | 212° |
| 2026-05-05 13:12 | 14.09637 | 80.89281 | 35840 ft | 440 kts | 212° |
| 2026-05-05 13:12 | 14.04445 | 80.85947 | 35824 ft | 440 kts | 212° |
| 2026-05-05 13:13 | 13.99253 | 80.82603 | 35835 ft | 440 kts | 212° |
| 2026-05-05 13:13 | 13.94099 | 80.79178 | 35818 ft | 440 kts | 213° |
| 2026-05-05 13:14 | 13.88982 | 80.75712 | 35831 ft | 441 kts | 213° |
| 2026-05-05 13:14 | 13.83890 | 80.72272 | 35826 ft | 441 kts | 212° |
| 2026-05-05 13:15 | 13.78721 | 80.68808 | 35833 ft | 441 kts | 212° |
| 2026-05-05 13:15 | 13.73578 | 80.65375 | 35832 ft | 441 kts | 212° |
| 2026-05-05 13:16 | 13.68471 | 80.61962 | 35835 ft | 441 kts | 213° |
| 2026-05-05 13:16 | 13.63327 | 80.58517 | 35810 ft | 441 kts | 213° |
| 2026-05-05 13:17 | 13.58185 | 80.55083 | 35826 ft | 441 kts | 212° |
| 2026-05-05 13:17 | 13.53035 | 80.51653 | 35812 ft | 441 kts | 212° |
| 2026-05-05 13:18 | 13.47884 | 80.48218 | 35821 ft | 442 kts | 212° |
| 2026-05-05 13:18 | 13.42732 | 80.44773 | 35816 ft | 442 kts | 213° |
| 2026-05-05 13:19 | 13.37576 | 80.41324 | 35822 ft | 442 kts | 213° |
| 2026-05-05 13:19 | 13.32414 | 80.37884 | 35813 ft | 442 kts | 212° |
| 2026-05-05 13:20 | 13.27256 | 80.34452 | 35824 ft | 442 kts | 213° |
| 2026-05-05 13:20 | 13.22127 | 80.31049 | 35811 ft | 442 kts | 213° |
| 2026-05-05 13:21 | 13.16936 | 80.27595 | 35821 ft | 442 kts | 213° |
| 2026-05-05 13:21 | 13.11794 | 80.24173 | 35820 ft | 442 kts | 213° |
| 2026-05-05 13:22 | 13.06631 | 80.20742 | 35806 ft | 442 kts | 213° |
| 2026-05-05 13:22 | 13.01526 | 80.17232 | 35819 ft | 442 kts | 219° |
| 2026-05-05 13:23 | 12.97523 | 80.12547 | 35806 ft | 443 kts | 238° |
| 2026-05-05 13:23 | 12.94783 | 80.06820 | 35816 ft | 444 kts | 244° |
| 2026-05-05 13:24 | 12.92168 | 80.01140 | 35806 ft | 444 kts | 243° |
| 2026-05-05 13:24 | 12.89525 | 79.95413 | 35799 ft | 445 kts | 243° |
| 2026-05-05 13:25 | 12.86872 | 79.89664 | 35799 ft | 446 kts | 243° |
| 2026-05-05 13:25 | 12.84225 | 79.83919 | 35796 ft | 446 kts | 244° |
| 2026-05-05 13:26 | 12.81575 | 79.78171 | 35805 ft | 446 kts | 244° |
| 2026-05-05 13:26 | 12.79300 | 79.73384 | 35804 ft | 445 kts | 238° |
| 2026-05-05 13:27 | 12.75390 | 79.68532 | 35798 ft | 442 kts | 220° |
| 2026-05-05 13:27 | 12.70802 | 79.64327 | 35804 ft | 443 kts | 221° |
| 2026-05-05 13:28 | 12.66253 | 79.60125 | 35806 ft | 443 kts | 221° |
| 2026-05-05 13:28 | 12.61674 | 79.55900 | 35804 ft | 443 kts | 221° |
| 2026-05-05 13:29 | 12.57091 | 79.51674 | 35811 ft | 443 kts | 221° |
| 2026-05-05 13:29 | 12.52505 | 79.47446 | 35822 ft | 443 kts | 221° |
| 2026-05-05 13:30 | 12.47918 | 79.43235 | 35818 ft | 443 kts | 220° |
| 2026-05-05 13:30 | 12.43296 | 79.39042 | 35818 ft | 444 kts | 220° |
| 2026-05-05 13:31 | 12.38670 | 79.34861 | 35811 ft | 444 kts | 220° |
| 2026-05-05 13:31 | 12.34039 | 79.30671 | 35813 ft | 445 kts | 220° |
| 2026-05-05 13:32 | 12.29402 | 79.26467 | 35828 ft | 445 kts | 220° |
| 2026-05-05 13:32 | 12.24762 | 79.22270 | 35829 ft | 445 kts | 220° |
| 2026-05-05 13:33 | 12.20122 | 79.18082 | 35829 ft | 445 kts | 220° |
| 2026-05-05 13:33 | 12.15477 | 79.13882 | 35824 ft | 445 kts | 220° |
| 2026-05-05 13:34 | 12.10835 | 79.09685 | 35834 ft | 445 kts | 220° |
| 2026-05-05 13:34 | 12.06192 | 79.05498 | 35843 ft | 445 kts | 220° |
| 2026-05-05 13:35 | 12.01548 | 79.01303 | 35848 ft | 446 kts | 220° |
| 2026-05-05 13:35 | 11.96899 | 78.97104 | 35854 ft | 446 kts | 220° |
| 2026-05-05 13:36 | 11.92255 | 78.92918 | 35855 ft | 446 kts | 220° |
| 2026-05-05 13:36 | 11.87630 | 78.88748 | 35851 ft | 446 kts | 220° |
| 2026-05-05 13:37 | 11.82976 | 78.84569 | 35855 ft | 446 kts | 220° |
| 2026-05-05 13:37 | 11.78323 | 78.80382 | 35853 ft | 446 kts | 220° |
| 2026-05-05 13:38 | 11.73676 | 78.76194 | 35864 ft | 446 kts | 220° |
| 2026-05-05 13:38 | 11.69022 | 78.72006 | 35855 ft | 446 kts | 220° |
| 2026-05-05 13:39 | 11.64368 | 78.67820 | 35870 ft | 446 kts | 220° |
| 2026-05-05 13:39 | 11.59712 | 78.63632 | 35854 ft | 446 kts | 220° |
| 2026-05-05 13:40 | 11.55060 | 78.59449 | 35862 ft | 446 kts | 221° |
| 2026-05-05 13:40 | 11.50662 | 78.54987 | 35851 ft | 448 kts | 232° |
| 2026-05-05 13:41 | 11.46920 | 78.49909 | 35852 ft | 448 kts | 232° |
| 2026-05-05 13:41 | 11.43171 | 78.44829 | 35850 ft | 448 kts | 232° |
| 2026-05-05 13:42 | 11.39416 | 78.39751 | 35857 ft | 448 kts | 232° |
| 2026-05-05 13:42 | 11.35661 | 78.34681 | 35843 ft | 448 kts | 232° |
| 2026-05-05 13:43 | 11.31902 | 78.29596 | 35854 ft | 449 kts | 231° |
| 2026-05-05 13:43 | 11.28150 | 78.24521 | 35850 ft | 449 kts | 231° |
| 2026-05-05 13:44 | 11.24419 | 78.19472 | 35857 ft | 449 kts | 232° |
| 2026-05-05 13:44 | 11.20668 | 78.14401 | 35863 ft | 449 kts | 231° |
| 2026-05-05 13:45 | 11.16909 | 78.09322 | 35851 ft | 449 kts | 232° |
| 2026-05-05 13:45 | 11.13154 | 78.04245 | 35861 ft | 449 kts | 231° |
| 2026-05-05 13:46 | 11.11277 | 78.01708 | 35665 ft | 447 kts | 231° |
| 2026-05-05 13:46 | 11.09414 | 77.99191 | 35232 ft | 444 kts | 231° |
| 2026-05-05 13:46 | 11.07560 | 77.96691 | 34809 ft | 441 kts | 232° |
| 2026-05-05 13:46 | 11.05714 | 77.94206 | 34383 ft | 439 kts | 232° |
| 2026-05-05 13:47 | 11.03878 | 77.91734 | 33974 ft | 436 kts | 232° |
| 2026-05-05 13:47 | 11.02061 | 77.89280 | 33522 ft | 433 kts | 231° |
| 2026-05-05 13:47 | 11.00257 | 77.86840 | 33059 ft | 430 kts | 232° |
| 2026-05-05 13:47 | 10.98466 | 77.84418 | 32608 ft | 427 kts | 232° |
| 2026-05-05 13:48 | 10.96683 | 77.82015 | 32174 ft | 424 kts | 232° |
| 2026-05-05 13:48 | 10.94913 | 77.79635 | 31748 ft | 421 kts | 232° |
| 2026-05-05 13:48 | 10.93150 | 77.77259 | 31331 ft | 418 kts | 233° |
| 2026-05-05 13:48 | 10.91612 | 77.74762 | 30921 ft | 416 kts | 242° |
| 2026-05-05 13:49 | 10.90339 | 77.72132 | 30513 ft | 413 kts | 243° |
| 2026-05-05 13:49 | 10.89071 | 77.69512 | 30125 ft | 411 kts | 243° |
| 2026-05-05 13:49 | 10.87803 | 77.66913 | 29715 ft | 408 kts | 243° |
| 2026-05-05 13:49 | 10.86541 | 77.64335 | 29278 ft | 405 kts | 243° |
| 2026-05-05 13:50 | 10.85290 | 77.61779 | 28874 ft | 402 kts | 243° |
| 2026-05-05 13:50 | 10.84049 | 77.59245 | 28485 ft | 399 kts | 243° |
| 2026-05-05 13:50 | 10.82816 | 77.56721 | 28052 ft | 397 kts | 243° |
| 2026-05-05 13:50 | 10.81596 | 77.54214 | 27664 ft | 395 kts | 243° |
| 2026-05-05 13:51 | 10.80382 | 77.51719 | 27294 ft | 392 kts | 243° |
| 2026-05-05 13:51 | 10.79180 | 77.49249 | 26926 ft | 388 kts | 243° |
| 2026-05-05 13:51 | 10.77985 | 77.46797 | 26550 ft | 386 kts | 243° |
| 2026-05-05 13:51 | 10.76798 | 77.44365 | 26182 ft | 383 kts | 243° |
| 2026-05-05 13:52 | 10.75616 | 77.41949 | 25835 ft | 379 kts | 244° |
| 2026-05-05 13:52 | 10.74450 | 77.39561 | 25470 ft | 376 kts | 244° |
| 2026-05-05 13:52 | 10.73290 | 77.37182 | 25103 ft | 374 kts | 244° |
| 2026-05-05 13:52 | 10.72138 | 77.34824 | 24739 ft | 371 kts | 244° |
| 2026-05-05 13:53 | 10.70993 | 77.32483 | 24390 ft | 368 kts | 244° |
| 2026-05-05 13:53 | 10.69859 | 77.30169 | 24043 ft | 365 kts | 244° |
| 2026-05-05 13:53 | 10.68731 | 77.27865 | 23667 ft | 363 kts | 244° |
| 2026-05-05 13:53 | 10.67610 | 77.25574 | 23265 ft | 361 kts | 243° |
| 2026-05-05 13:54 | 10.66510 | 77.23327 | 22841 ft | 359 kts | 243° |
| 2026-05-05 13:54 | 10.65388 | 77.21031 | 22458 ft | 356 kts | 243° |
| 2026-05-05 13:54 | 10.64292 | 77.18786 | 22031 ft | 354 kts | 244° |
| 2026-05-05 13:54 | 10.63201 | 77.16551 | 21609 ft | 352 kts | 244° |
| 2026-05-05 13:55 | 10.62128 | 77.14360 | 21248 ft | 349 kts | 244° |
| 2026-05-05 13:55 | 10.61033 | 77.12132 | 20869 ft | 346 kts | 244° |
| 2026-05-05 13:55 | 10.59976 | 77.09984 | 20523 ft | 343 kts | 244° |
| 2026-05-05 13:55 | 10.58911 | 77.07815 | 20157 ft | 341 kts | 244° |
| 2026-05-05 13:56 | 10.57854 | 77.05659 | 19755 ft | 340 kts | 244° |
| 2026-05-05 13:56 | 10.56805 | 77.03515 | 19425 ft | 337 kts | 244° |
| 2026-05-05 13:56 | 10.55765 | 77.01394 | 19114 ft | 333 kts | 244° |
| 2026-05-05 13:56 | 10.54734 | 76.99290 | 18743 ft | 332 kts | 245° |
| 2026-05-05 13:57 | 10.53710 | 76.97196 | 18399 ft | 330 kts | 244° |
| 2026-05-05 13:57 | 10.52688 | 76.95110 | 18021 ft | 329 kts | 244° |
| 2026-05-05 13:57 | 10.51673 | 76.93040 | 17650 ft | 327 kts | 244° |
| 2026-05-05 13:57 | 10.50663 | 76.90984 | 17283 ft | 324 kts | 245° |
| 2026-05-05 13:58 | 10.49656 | 76.88938 | 16879 ft | 324 kts | 244° |
| 2026-05-05 13:58 | 10.48654 | 76.86897 | 16485 ft | 323 kts | 244° |
| 2026-05-05 13:58 | 10.47649 | 76.84847 | 16090 ft | 323 kts | 245° |
| 2026-05-05 13:58 | 10.46649 | 76.82811 | 15735 ft | 322 kts | 245° |
| 2026-05-05 13:59 | 10.44661 | 76.78764 | 15046 ft | 319 kts | 245° |
| 2026-05-05 13:59 | 10.43475 | 76.76862 | 14713 ft | 319 kts | 232° |
| 2026-05-05 14:00 | 10.40057 | 76.74090 | 14025 ft | 321 kts | 211° |
| 2026-05-05 14:00 | 10.38740 | 76.73338 | 13789 ft | 321 kts | 211° |
| 2026-05-05 14:00 | 10.36168 | 76.71867 | 13292 ft | 320 kts | 210° |
| 2026-05-05 14:00 | 10.34233 | 76.70758 | 12917 ft | 319 kts | 210° |
| 2026-05-05 14:01 | 10.32299 | 76.69645 | 12571 ft | 318 kts | 210° |
| 2026-05-05 14:01 | 10.30381 | 76.68540 | 12190 ft | 318 kts | 211° |
| 2026-05-05 14:01 | 10.28452 | 76.67430 | 11773 ft | 319 kts | 210° |
| 2026-05-05 14:01 | 10.26521 | 76.66304 | 11361 ft | 320 kts | 213° |
| 2026-05-05 14:02 | 10.24920 | 76.64761 | 10944 ft | 319 kts | 237° |
| 2026-05-05 14:02 | 10.24063 | 76.62715 | 10539 ft | 316 kts | 262° |
| 2026-05-05 14:02 | 10.23905 | 76.60503 | 10149 ft | 315 kts | 270° |
| 2026-05-05 14:02 | 10.23824 | 76.58284 | 9750 ft | 314 kts | 270° |
| 2026-05-05 14:03 | 10.23743 | 76.56071 | 9329 ft | 315 kts | 270° |
| 2026-05-05 14:03 | 10.23659 | 76.53845 | 8904 ft | 315 kts | 270° |
| 2026-05-05 14:03 | 10.23575 | 76.51620 | 8482 ft | 315 kts | 269° |
| 2026-05-05 14:03 | 10.23490 | 76.49416 | 8062 ft | 308 kts | 269° |
| 2026-05-05 14:04 | 10.23405 | 76.47287 | 7649 ft | 297 kts | 269° |
| 2026-05-05 14:04 | 10.23322 | 76.45224 | 7245 ft | 287 kts | 269° |
| 2026-05-05 14:04 | 10.23242 | 76.43229 | 6848 ft | 279 kts | 269° |
| 2026-05-05 14:04 | 10.23165 | 76.41289 | 6458 ft | 272 kts | 269° |
| 2026-05-05 14:05 | 10.23091 | 76.39389 | 6053 ft | 266 kts | 269° |
| 2026-05-05 14:05 | 10.23019 | 76.37529 | 5638 ft | 261 kts | 269° |
| 2026-05-05 14:05 | 10.22949 | 76.35711 | 5229 ft | 255 kts | 269° |
| 2026-05-05 14:05 | 10.22879 | 76.33940 | 4912 ft | 246 kts | 269° |
| 2026-05-05 14:06 | 10.22810 | 76.32224 | 4527 ft | 241 kts | 270° |
| 2026-05-05 14:06 | 10.22744 | 76.30544 | 4137 ft | 235 kts | 269° |
| 2026-05-05 14:06 | 10.22680 | 76.28904 | 3751 ft | 230 kts | 270° |
| 2026-05-05 14:06 | 10.22617 | 76.27297 | 3378 ft | 225 kts | 270° |
| 2026-05-05 14:07 | 10.22555 | 76.25744 | 2989 ft | 221 kts | 269° |
| 2026-05-05 14:07 | 10.22493 | 76.24182 | 2597 ft | 217 kts | 269° |
| 2026-05-05 14:07 | 10.22431 | 76.22659 | 2217 ft | 215 kts | 269° |
| 2026-05-05 14:07 | 10.22373 | 76.21189 | 2107 ft | 212 kts | 269° |
| 2026-05-05 14:08 | 10.22315 | 76.19703 | 2108 ft | 205 kts | 267° |
| 2026-05-05 14:08 | 10.21882 | 76.18365 | 2105 ft | 202 kts | 233° |
| 2026-05-05 14:08 | 10.20747 | 76.17562 | 2107 ft | 204 kts | 199° |
| 2026-05-05 14:08 | 10.19352 | 76.17273 | 2110 ft | 205 kts | 190° |
| 2026-05-05 14:09 | 10.17933 | 76.17254 | 2119 ft | 200 kts | 172° |
| 2026-05-05 14:09 | 10.16670 | 76.17673 | 2105 ft | 184 kts | 152° |
| 2026-05-05 14:09 | 10.15675 | 76.18404 | 2086 ft | 171 kts | 134° |
| 2026-05-05 14:09 | 10.14962 | 76.19345 | 2098 ft | 167 kts | 118° |
| 2026-05-05 14:10 | 10.14539 | 76.20428 | 2106 ft | 165 kts | 101° |
| 2026-05-05 14:10 | 10.14426 | 76.21568 | 2105 ft | 162 kts | 85° |
| 2026-05-05 14:10 | 10.14470 | 76.22713 | 2111 ft | 162 kts | 85° |
| 2026-05-05 14:10 | 10.14513 | 76.23855 | 2105 ft | 162 kts | 85° |
| 2026-05-05 14:11 | 10.14555 | 76.24997 | 2111 ft | 162 kts | 86° |
| 2026-05-05 14:11 | 10.14598 | 76.26142 | 2111 ft | 163 kts | 85° |
| 2026-05-05 14:11 | 10.14640 | 76.27288 | 2042 ft | 162 kts | 86° |
| 2026-05-05 14:11 | 10.14683 | 76.28431 | 1887 ft | 162 kts | 86° |
| 2026-05-05 14:12 | 10.14725 | 76.29563 | 1696 ft | 159 kts | 86° |
| 2026-05-05 14:12 | 10.14765 | 76.30655 | 1518 ft | 154 kts | 86° |
| 2026-05-05 14:12 | 10.14791 | 76.31370 | 1379 ft | 152 kts | 87° |
| 2026-05-05 14:12 | 10.14831 | 76.32427 | 1168 ft | 150 kts | 86° |
| 2026-05-05 14:13 | 10.14883 | 76.33842 | 923 ft | 149 kts | 86° |
| 2026-05-05 14:13 | 10.14922 | 76.34893 | 735 ft | 150 kts | 86° |
| 2026-05-05 14:13 | 10.14948 | 76.35596 | 628 ft | 150 kts | 86° |
| 2026-05-05 14:13 | 10.14999 | 76.36995 | 381 ft | 149 kts | 87° |
| 2026-05-05 14:14 | 10.15025 | 76.37689 | 243 ft | 149 kts | 86° |
| 2026-05-05 14:14 | 10.15063 | 76.38736 | 64 ft | 146 kts | 84° |
| 2026-05-05 14:14 | 10.15100 | 76.39617 | 38 ft | 77 kts | 88° |
| 2026-05-05 14:14 | 10.15110 | 76.39931 | 38 ft | 39 kts | 91° |
| 2026-05-05 14:15 | 10.15155 | 76.40183 | 39 ft | 21 kts | 10° |
| 2026-05-05 14:15 | 10.15254 | 76.40178 | 37 ft | 20 kts | 354° |
| 2026-05-05 14:15 | 10.15289 | 76.40109 | 39 ft | 8 kts | 271° |
| 2026-05-05 14:15 | 10.15287 | 76.40043 | 39 ft | 11 kts | 267° |
| 2026-05-05 14:16 | 10.15291 | 76.39961 | 37 ft | 11 kts | 298° |
| 2026-05-05 14:16 | 10.15363 | 76.39934 | 37 ft | 11 kts | 315° |
| 2026-05-05 14:16 | 10.15376 | 76.39861 | 39 ft | 11 kts | 271° |
| 2026-05-05 14:16 | 10.15374 | 76.39776 | 39 ft | 13 kts | 273° |
| 2026-05-05 14:17 | 10.15441 | 76.39721 | 39 ft | 12 kts | 352° |
| 2026-05-05 14:17 | 10.15525 | 76.39735 | 39 ft | 11 kts | 5° |
| 2026-05-05 14:17 | 10.15562 | 76.39724 | 39 ft | 6 kts | 324° |
| 2026-05-05 14:17 | 10.15603 | 76.39711 | 38 ft | 7 kts | 355° |
| 2026-05-05 14:18 | 10.15625 | 76.39710 | 39 ft | 0 kts | 358° |
| 2026-05-05 14:18 | 10.15635 | 76.39710 | 39 ft | 1 kts | 358° |
| 2026-05-05 14:18 | 10.15637 | 76.39710 | 39 ft | 0 kts | 358° |
| 2026-05-05 14:18 | 10.15638 | 76.39710 | 39 ft | 0 kts | 358° |